createdAt,value
2023-01-20T00:00:28.737Z,168.10
2023-01-20T00:02:30.884Z,174.20
2023-01-20T00:04:32.563Z,150.55
2023-01-20T00:06:34.426Z,144.82
2023-01-20T00:08:36.519Z,151.88
2023-01-20T00:10:38.224Z,151.32
2023-01-20T00:12:40.075Z,150.07
2023-01-20T00:14:41.964Z,142.23
2023-01-20T00:16:43.688Z,153.23
2023-01-20T00:18:45.546Z,146.70
2023-01-20T00:20:47.235Z,146.38
2023-01-20T00:22:48.931Z,151.85
2023-01-20T00:24:50.688Z,146.50
2023-01-20T00:26:52.633Z,126.90
2023-01-20T00:28:55.541Z,137.43
2023-01-20T00:30:57.358Z,140.55
2023-01-20T00:32:59.163Z,151.65
2023-01-20T00:35:00.825Z,145.93
2023-01-20T00:37:02.764Z,140.90
2023-01-20T00:39:05.228Z,129.35
2023-01-20T00:41:08.025Z,134.93
2023-01-20T00:43:09.786Z,140.73
2023-01-20T00:45:12.517Z,147.38
2023-01-20T00:47:14.422Z,131.82
2023-01-20T00:49:16.341Z,125.80
2023-01-20T00:51:18.250Z,130.48
2023-01-20T00:53:20.056Z,116.60
2023-01-20T00:55:21.885Z,139.43
2023-01-20T00:57:23.601Z,142.48
2023-01-20T00:59:25.320Z,157.65
2023-01-20T01:01:27.044Z,164.48
2023-01-20T01:03:29.444Z,153.57
2023-01-20T01:05:31.741Z,156.40
2023-01-20T01:07:33.663Z,184.55
2023-01-20T01:09:35.647Z,137.30
2023-01-20T01:11:37.372Z,133.32
2023-01-20T01:13:39.318Z,128.70
2023-01-20T01:15:49.868Z,127.50
2023-01-20T01:17:52.850Z,126.90
2023-01-20T01:19:55.004Z,127.38
2023-01-20T01:21:57.012Z,122.10
2023-01-20T01:23:58.694Z,132.30
2023-01-20T01:26:00.521Z,129.00
2023-01-20T01:28:02.209Z,120.68
2023-01-20T01:30:04.417Z,124.63
2023-01-20T01:32:07.252Z,129.23
2023-01-20T01:34:09.162Z,131.13
2023-01-20T01:36:15.739Z,139.18
2023-01-20T01:38:17.461Z,134.68
2023-01-20T01:40:19.435Z,124.70
2023-01-20T01:42:25.134Z,129.55
2023-01-20T01:44:27.113Z,141.98
2023-01-20T01:46:28.983Z,142.20
2023-01-20T01:48:41.804Z,132.77
2023-01-20T01:50:48.435Z,137.48
2023-01-20T01:52:53.414Z,119.03
2023-01-20T01:54:56.069Z,115.72
2023-01-20T01:56:57.849Z,110.97
2023-01-20T01:59:02.897Z,117.45
2023-01-20T02:01:05.103Z,118.50
2023-01-20T02:03:07.468Z,112.70
2023-01-20T02:05:11.152Z,112.18
2023-01-20T02:07:17.135Z,109.13
2023-01-20T02:09:19.151Z,103.25
2023-01-20T02:11:21.405Z,112.85
2023-01-20T02:13:23.487Z,109.75
2023-01-20T02:15:30.187Z,107.47
2023-01-20T02:17:33.932Z,104.78
2023-01-20T02:20:03.152Z,107.68
2023-01-20T02:22:25.839Z,103.00
2023-01-20T02:24:48.906Z,95.78
2023-01-20T02:27:02.314Z,101.75
2023-01-20T02:29:38.700Z,106.22
2023-01-20T02:31:59.117Z,113.15
2023-01-20T02:34:08.480Z,109.78
2023-01-20T02:36:15.837Z,110.35
2023-01-20T02:38:42.047Z,105.88
2023-01-20T02:41:07.992Z,110.07
2023-01-20T02:43:26.133Z,109.05
2023-01-20T02:45:35.685Z,115.70
2023-01-20T02:47:55.555Z,106.07
2023-01-20T02:49:57.224Z,113.20
2023-01-20T02:52:03.850Z,116.03
2023-01-20T02:54:10.721Z,111.25
2023-01-20T02:56:13.301Z,113.43
2023-01-20T02:58:27.871Z,112.43
2023-01-20T03:00:35.158Z,107.53
2023-01-20T03:02:38.817Z,107.68
2023-01-20T03:06:49.707Z,96.07
2023-01-20T03:08:53.584Z,97.88
2023-01-20T03:10:58.597Z,103.75
2023-01-20T03:13:32.743Z,109.03
2023-01-20T03:15:43.397Z,97.10
2023-01-20T03:17:45.742Z,97.55
2023-01-20T03:19:48.010Z,96.30
2023-01-20T03:21:49.887Z,100.15
2023-01-20T03:23:56.043Z,87.05
2023-01-20T03:25:59.247Z,101.35
2023-01-20T03:28:01.181Z,94.40
2023-01-20T03:30:03.539Z,99.30
2023-01-20T03:32:08.755Z,95.22
2023-01-20T03:34:13.454Z,97.47
2023-01-20T03:36:16.559Z,90.55
2023-01-20T03:38:18.423Z,92.68
2023-01-20T03:40:22.519Z,92.05
2023-01-20T03:42:32.064Z,92.63
2023-01-20T03:45:05.798Z,96.13
2023-01-20T03:47:11.782Z,93.60
2023-01-20T03:49:17.910Z,89.55
2023-01-20T03:51:27.661Z,85.53
2023-01-20T03:53:36.138Z,89.85
2023-01-20T03:55:56.223Z,88.35
2023-01-20T03:58:14.163Z,91.85
2023-01-20T04:00:18.207Z,97.40
2023-01-20T04:02:21.131Z,104.07
2023-01-20T04:04:23.059Z,132.77
2023-01-20T04:06:31.290Z,128.10
2023-01-20T04:08:40.070Z,100.47
2023-01-20T04:10:45.682Z,88.40
2023-01-20T04:12:47.486Z,94.88
2023-01-20T04:14:49.270Z,96.00
2023-01-20T04:16:55.232Z,145.10
2023-01-20T04:19:01.246Z,103.32
2023-01-20T04:21:04.101Z,90.22
2023-01-20T04:23:06.795Z,79.97
2023-01-20T04:25:17.431Z,97.57
2023-01-20T04:27:19.471Z,227.32
2023-01-20T04:29:21.518Z,142.50
2023-01-20T04:31:30.657Z,117.78
2023-01-20T04:33:33.035Z,139.80
2023-01-20T04:35:34.826Z,136.13
2023-01-20T04:37:36.500Z,120.03
2023-01-20T04:39:38.291Z,98.47
2023-01-20T04:41:40.166Z,91.07
2023-01-20T04:43:44.160Z,83.53
2023-01-20T04:45:46.092Z,100.18
2023-01-20T04:47:48.003Z,105.20
2023-01-20T04:49:49.867Z,102.38
2023-01-20T04:51:51.860Z,95.35
2023-01-20T04:53:57.769Z,103.07
2023-01-20T04:55:59.481Z,90.55
2023-01-20T04:58:01.559Z,87.90
2023-01-20T05:00:05.795Z,536.88
2023-01-20T05:02:07.576Z,230.13
2023-01-20T05:04:09.493Z,98.15
2023-01-20T05:06:11.692Z,95.88
2023-01-20T05:08:13.387Z,159.13
2023-01-20T05:10:15.290Z,122.03
2023-01-20T05:12:17.133Z,114.30
2023-01-20T05:14:18.835Z,117.13
2023-01-20T05:16:20.795Z,573.42
2023-01-20T05:18:22.742Z,145.52
2023-01-20T05:20:24.420Z,117.50
2023-01-20T05:22:26.321Z,168.18
2023-01-20T05:24:28.001Z,100.03
2023-01-20T05:26:29.673Z,102.25
2023-01-20T05:28:31.560Z,142.05
2023-01-20T05:30:33.464Z,105.22
2023-01-20T05:32:35.201Z,111.63
2023-01-20T05:34:37.065Z,120.40
2023-01-20T05:36:39.009Z,146.85
2023-01-20T05:38:40.709Z,127.53
2023-01-20T05:40:42.553Z,106.50
2023-01-20T05:42:44.248Z,104.20
2023-01-20T05:44:45.927Z,109.97
2023-01-20T05:46:47.851Z,139.05
2023-01-20T05:48:49.645Z,137.95
2023-01-20T05:50:52.020Z,114.32
2023-01-20T05:52:54.049Z,123.72
2023-01-20T05:54:55.877Z,152.43
2023-01-20T05:56:57.581Z,130.52
2023-01-20T05:58:59.563Z,133.18
2023-01-20T06:01:13.332Z,141.40
2023-01-20T06:03:15.009Z,109.28
2023-01-20T06:05:17.466Z,137.45
2023-01-20T06:07:19.530Z,133.93
2023-01-20T06:09:21.293Z,131.25
2023-01-20T06:11:23.155Z,138.10
2023-01-20T06:13:25.251Z,160.57
2023-01-20T06:15:26.960Z,128.98
2023-01-20T06:17:28.977Z,141.23
2023-01-20T06:19:30.808Z,133.98
2023-01-20T06:21:32.487Z,129.07
2023-01-20T06:23:34.310Z,114.95
2023-01-20T06:25:36.078Z,105.72
2023-01-20T06:27:37.802Z,150.88
2023-01-20T06:29:39.829Z,113.32
2023-01-20T06:31:41.639Z,117.80
2023-01-20T06:33:43.897Z,117.57
2023-01-20T06:35:45.833Z,111.15
2023-01-20T06:37:47.662Z,117.35
2023-01-20T06:39:49.347Z,133.32
2023-01-20T06:41:51.827Z,128.52
2023-01-20T06:43:53.662Z,135.05
2023-01-20T06:45:59.282Z,138.50
2023-01-20T06:48:01.202Z,131.48
2023-01-20T06:50:03.092Z,127.25
2023-01-20T06:52:04.943Z,149.55
2023-01-20T06:54:06.922Z,143.45
2023-01-20T06:56:11.453Z,138.07
2023-01-20T06:58:13.169Z,108.40
2023-01-20T07:00:15.511Z,118.93
2023-01-20T07:02:17.345Z,125.53
2023-01-20T07:04:19.152Z,132.57
2023-01-20T07:06:28.601Z,131.02
2023-01-20T07:08:30.767Z,134.32
2023-01-20T07:10:32.466Z,134.88
2023-01-20T07:12:34.335Z,128.00
2023-01-20T07:14:36.142Z,144.02
2023-01-20T07:16:38.259Z,139.07
2023-01-20T07:18:40.586Z,126.57
2023-01-20T07:20:42.504Z,132.57
2023-01-20T07:22:44.291Z,139.98
2023-01-20T07:24:46.223Z,139.05
2023-01-20T07:26:48.179Z,162.20
2023-01-20T07:28:50.049Z,136.93
2023-01-20T07:30:51.848Z,136.35
2023-01-20T07:32:54.016Z,153.95
2023-01-20T07:34:55.728Z,132.35
2023-01-20T07:36:57.499Z,145.45
2023-01-20T07:38:59.507Z,158.82
2023-01-20T07:41:04.972Z,151.88
2023-01-20T07:43:07.107Z,136.77
2023-01-20T07:45:09.124Z,153.75
2023-01-20T07:47:10.873Z,143.73
2023-01-20T07:49:12.625Z,139.60
2023-01-20T07:51:16.157Z,140.85
2023-01-20T07:55:19.617Z,129.27
2023-01-20T07:57:21.388Z,135.98
2023-01-20T07:59:23.075Z,128.10
2023-01-20T08:01:28.088Z,131.50
2023-01-20T08:03:30.075Z,139.20
2023-01-20T08:05:32.409Z,128.20
2023-01-20T08:07:34.418Z,140.48
2023-01-20T08:09:36.258Z,149.60
2023-01-20T08:11:38.718Z,142.70
2023-01-20T08:13:40.868Z,135.65
2023-01-20T08:15:42.704Z,144.98
2023-01-20T08:17:44.415Z,155.38
2023-01-20T08:19:46.107Z,164.20
2023-01-20T08:21:47.974Z,153.73
2023-01-20T08:23:50.147Z,151.65
2023-01-20T08:26:02.816Z,145.80
2023-01-20T08:28:05.599Z,146.60
2023-01-20T08:30:08.218Z,146.52
2023-01-20T08:32:10.108Z,146.45
2023-01-20T08:34:11.905Z,135.98
2023-01-20T08:36:20.138Z,150.38
2023-01-20T08:38:21.904Z,142.23
2023-01-20T08:40:23.685Z,223.07
2023-01-20T08:42:25.422Z,176.82
2023-01-20T08:44:27.259Z,129.73
2023-01-20T08:46:29.142Z,155.10
2023-01-20T08:48:30.853Z,135.13
2023-01-20T08:50:32.615Z,169.25
2023-01-20T08:52:34.569Z,133.70
2023-01-20T08:54:36.249Z,142.43
2023-01-20T08:56:37.961Z,132.57
2023-01-20T08:58:40.057Z,135.38
2023-01-20T09:00:41.795Z,131.23
2023-01-20T09:02:43.557Z,130.70
2023-01-20T09:04:45.364Z,133.25
2023-01-20T09:06:49.689Z,120.30
2023-01-20T09:08:52.394Z,139.70
2023-01-20T09:10:54.309Z,130.37
2023-01-20T09:12:55.983Z,129.35
2023-01-20T09:14:57.928Z,129.88
2023-01-20T09:17:00.092Z,124.40
2023-01-20T09:19:01.787Z,125.80
2023-01-20T09:21:04.111Z,148.60
2023-01-20T09:23:06.028Z,131.77
2023-01-20T09:25:09.588Z,131.00
2023-01-20T09:29:16.646Z,125.15
2023-01-20T09:31:18.376Z,120.20
2023-01-20T09:33:20.275Z,126.93
2023-01-20T09:35:22.141Z,117.50
2023-01-20T09:37:23.815Z,127.78
2023-01-20T09:39:25.825Z,123.13
2023-01-20T09:41:30.690Z,108.97
2023-01-20T09:44:03.148Z,113.80
2023-01-20T09:46:16.332Z,125.60
2023-01-20T09:48:51.795Z,117.43
2023-01-20T09:51:03.159Z,121.70
2023-01-20T09:53:15.878Z,126.00
2023-01-20T09:55:26.514Z,118.97
2023-01-20T09:57:33.855Z,126.63
2023-01-20T09:59:46.658Z,162.68
2023-01-20T10:01:54.211Z,132.20
2023-01-20T10:04:17.325Z,127.80
2023-01-20T10:06:40.178Z,108.82
2023-01-20T10:09:06.674Z,122.78
2023-01-20T10:11:16.292Z,113.93
2023-01-20T10:13:33.412Z,131.85
2023-01-20T10:15:47.185Z,131.30
2023-01-20T10:17:48.993Z,121.90
2023-01-20T10:20:01.564Z,170.75
2023-01-20T10:22:26.463Z,132.20
2023-01-20T10:24:43.569Z,124.55
2023-01-20T10:26:58.159Z,208.10
2023-01-20T10:29:02.019Z,124.68
2023-01-20T10:31:05.160Z,117.25
2023-01-20T10:33:19.674Z,120.03
2023-01-20T10:35:25.249Z,110.68
2023-01-20T10:37:27.806Z,116.10
2023-01-20T10:40:03.546Z,109.78
2023-01-20T10:42:11.689Z,98.10
2023-01-20T10:44:15.459Z,103.28
2023-01-20T10:46:36.836Z,96.05
2023-01-20T10:49:08.131Z,95.28
2023-01-20T10:51:35.623Z,113.00
2023-01-20T10:53:51.263Z,117.18
2023-01-20T10:56:14.213Z,98.57
2023-01-20T10:58:31.853Z,104.03
2023-01-20T11:00:35.180Z,104.70
2023-01-20T11:02:37.179Z,111.50
2023-01-20T11:04:38.945Z,96.22
2023-01-20T11:06:40.875Z,111.15
2023-01-20T11:08:44.396Z,106.32
2023-01-20T11:10:49.444Z,100.75
2023-01-20T11:12:55.756Z,106.90
2023-01-20T11:15:00.560Z,108.40
2023-01-20T11:17:08.343Z,102.95
2023-01-20T11:19:10.391Z,96.25
2023-01-20T11:21:13.173Z,97.40
2023-01-20T11:23:33.206Z,93.03
2023-01-20T11:25:35.145Z,85.28
2023-01-20T11:27:45.957Z,91.93
2023-01-20T11:30:20.613Z,83.78
2023-01-20T11:34:49.471Z,103.88
2023-01-20T11:37:12.110Z,86.68
2023-01-20T11:39:35.788Z,84.28
2023-01-20T11:41:37.523Z,88.55
2023-01-20T11:43:39.222Z,82.43
2023-01-20T11:45:41.052Z,82.68
2023-01-20T11:47:42.915Z,73.50
2023-01-20T11:49:44.604Z,71.95
2023-01-20T11:51:56.298Z,81.05
2023-01-20T11:54:12.593Z,83.35
2023-01-20T11:56:25.204Z,82.07
2023-01-20T11:58:34.105Z,87.68
2023-01-20T12:00:44.240Z,87.15
2023-01-20T12:03:00.826Z,75.32
2023-01-20T12:05:08.204Z,73.78
2023-01-20T12:07:18.611Z,63.22
2023-01-20T12:09:26.705Z,65.03
2023-01-20T12:11:36.213Z,98.93
2023-01-20T12:13:58.676Z,70.78
2023-01-20T12:16:01.577Z,70.25
2023-01-20T12:18:13.097Z,71.13
2023-01-20T12:20:25.299Z,65.88
2023-01-20T12:22:57.332Z,68.43
2023-01-20T12:25:21.532Z,69.45
2023-01-20T12:27:27.861Z,65.10
2023-01-20T12:29:40.151Z,68.78
2023-01-20T12:31:43.543Z,71.10
2023-01-20T12:33:48.137Z,65.15
2023-01-20T12:36:27.104Z,65.30
2023-01-20T12:38:37.022Z,85.93
2023-01-20T12:40:56.623Z,74.22
2023-01-20T12:43:09.789Z,70.78
2023-01-20T12:45:27.068Z,89.82
2023-01-20T12:47:47.658Z,124.35
2023-01-20T12:50:14.032Z,105.25
2023-01-20T12:52:43.959Z,65.03
2023-01-20T12:55:24.616Z,88.65
2023-01-20T12:57:26.243Z,89.20
2023-01-20T12:59:47.236Z,67.55
2023-01-20T13:02:16.697Z,103.38
2023-01-20T13:04:51.283Z,70.00
2023-01-20T13:06:58.916Z,77.50
2023-01-20T13:09:26.488Z,75.80
2023-01-20T13:11:28.218Z,84.90
2023-01-20T13:13:58.779Z,77.63
2023-01-20T13:16:05.922Z,60.63
2023-01-20T13:18:35.280Z,57.65
2023-01-20T13:20:39.119Z,62.90
2023-01-20T13:22:40.859Z,69.93
2023-01-20T13:24:46.011Z,69.85
2023-01-20T13:26:49.464Z,67.50
2023-01-20T13:28:56.082Z,64.43
2023-01-20T13:31:00.722Z,66.07
2023-01-20T13:33:13.081Z,83.15
2023-01-20T13:35:17.989Z,79.07
2023-01-20T13:37:25.699Z,77.03
2023-01-20T13:39:30.253Z,76.40
2023-01-20T13:41:48.793Z,84.07
2023-01-20T13:43:50.861Z,78.90
2023-01-20T13:46:07.677Z,72.75
2023-01-20T13:48:09.332Z,73.43
2023-01-20T13:50:28.353Z,64.65
2023-01-20T13:52:55.834Z,433.88
2023-01-20T13:54:57.508Z,125.47
2023-01-20T13:57:20.854Z,131.82
2023-01-20T13:59:22.508Z,110.10
2023-01-20T14:01:25.281Z,106.15
2023-01-20T14:03:36.288Z,159.30
2023-01-20T14:05:37.984Z,155.48
2023-01-20T14:07:44.207Z,128.70
2023-01-20T14:09:55.166Z,114.28
2023-01-20T14:11:57.716Z,132.18
2023-01-20T14:14:01.872Z,137.30
2023-01-20T14:16:04.368Z,237.50
2023-01-20T14:18:14.843Z,190.55
2023-01-20T14:20:22.193Z,120.82
2023-01-20T14:22:26.836Z,119.80
2023-01-20T14:24:43.669Z,139.18
2023-01-20T14:26:45.372Z,89.38
2023-01-20T14:28:53.001Z,97.57
2023-01-20T14:31:37.244Z,99.55
2023-01-20T14:33:52.628Z,122.35
2023-01-20T14:35:54.294Z,153.70
2023-01-20T14:37:56.070Z,191.75
2023-01-20T14:40:00.655Z,203.52
2023-01-20T14:42:02.473Z,91.32
2023-01-20T14:44:17.494Z,95.05
2023-01-20T14:46:19.460Z,88.40
2023-01-20T14:48:33.760Z,91.65
2023-01-20T14:50:37.777Z,99.15
2023-01-20T14:52:39.632Z,110.57
2023-01-20T14:54:46.011Z,113.70
2023-01-20T14:56:48.237Z,229.77
2023-01-20T14:58:53.497Z,182.07
2023-01-20T15:01:00.714Z,84.68
2023-01-20T15:03:18.266Z,93.10
2023-01-20T15:05:25.721Z,90.40
2023-01-20T15:07:27.433Z,103.57
2023-01-20T15:09:33.631Z,133.70
2023-01-20T15:11:35.521Z,97.53
2023-01-20T15:13:39.439Z,144.25
2023-01-20T15:15:41.153Z,118.13
2023-01-20T15:18:11.208Z,120.22
2023-01-20T15:20:30.005Z,135.30
2023-01-20T15:22:31.823Z,143.52
2023-01-20T15:24:34.462Z,169.40
2023-01-20T15:26:36.997Z,274.23
2023-01-20T15:28:43.116Z,263.65
2023-01-20T15:30:44.842Z,199.98
2023-01-20T15:32:48.142Z,203.88
2023-01-20T15:34:49.897Z,155.23
2023-01-20T15:36:53.072Z,103.13
2023-01-20T15:38:55.166Z,328.50
2023-01-20T15:40:57.095Z,206.10
2023-01-20T15:43:03.662Z,198.02
2023-01-20T15:45:05.805Z,269.42
2023-01-20T15:47:27.347Z,218.82
2023-01-20T15:49:29.170Z,158.80
2023-01-20T15:51:30.951Z,170.52
2023-01-20T15:53:33.700Z,213.52
2023-01-20T15:55:35.495Z,197.33
2023-01-20T15:57:37.429Z,134.65
2023-01-20T15:59:39.112Z,152.95
2023-01-20T16:01:41.037Z,152.07
2023-01-20T16:03:43.126Z,156.75
2023-01-20T16:05:44.870Z,133.80
2023-01-20T16:07:46.708Z,126.88
2023-01-20T16:09:48.646Z,160.98
2023-01-20T16:11:50.314Z,155.80
2023-01-20T16:13:52.108Z,336.17
2023-01-20T16:15:54.092Z,221.98
2023-01-20T16:17:55.787Z,293.48
2023-01-20T16:19:57.616Z,221.23
2023-01-20T16:21:59.397Z,228.13
2023-01-20T16:24:01.137Z,279.52
2023-01-20T16:26:03.213Z,198.02
2023-01-20T16:28:16.342Z,300.88
2023-01-20T16:30:20.836Z,257.23
2023-01-20T16:32:22.717Z,331.45
2023-01-20T16:34:24.495Z,470.15
2023-01-20T16:36:26.198Z,426.67
2023-01-20T16:38:28.147Z,376.48
2023-01-20T16:40:30.177Z,356.42
2023-01-20T16:42:32.757Z,248.50
2023-01-20T16:44:34.514Z,166.73
2023-01-20T16:46:36.430Z,101.47
2023-01-20T16:48:38.103Z,99.25
2023-01-20T16:50:40.190Z,103.22
2023-01-20T16:52:42.084Z,128.48
2023-01-20T16:54:43.777Z,542.63
2023-01-20T16:56:45.594Z,517.83
2023-01-20T16:58:48.717Z,68.88
2023-01-20T17:00:50.493Z,119.10
2023-01-20T17:02:53.151Z,149.75
2023-01-20T17:04:54.900Z,108.47
2023-01-20T17:06:56.619Z,93.47
2023-01-20T17:09:00.337Z,89.47
2023-01-20T17:11:02.158Z,93.72
2023-01-20T17:13:03.887Z,114.15
2023-01-20T17:15:06.293Z,83.32
2023-01-20T17:17:08.141Z,58.55
2023-01-20T17:19:09.897Z,209.00
2023-01-20T17:21:12.890Z,78.88
2023-01-20T17:23:14.691Z,277.13
2023-01-20T17:25:17.814Z,341.23
2023-01-20T17:27:21.103Z,125.85
2023-01-20T17:29:22.873Z,456.65
2023-01-20T17:31:25.216Z,155.93
2023-01-20T17:33:27.102Z,538.65
2023-01-20T17:35:29.072Z,340.33
2023-01-20T17:37:31.106Z,574.53
2023-01-20T17:39:32.840Z,423.58
2023-01-20T17:41:35.326Z,317.23
2023-01-20T17:43:43.323Z,358.17
2023-01-20T17:45:45.079Z,144.93
2023-01-20T17:47:50.358Z,109.20
2023-01-20T17:49:52.126Z,194.10
2023-01-20T17:51:53.976Z,144.23
2023-01-20T17:53:57.995Z,88.25
2023-01-20T17:56:11.906Z,178.88
2023-01-20T17:58:14.726Z,60.25
2023-01-20T18:00:17.218Z,60.78
2023-01-20T18:02:19.045Z,71.05
2023-01-20T18:04:21.184Z,70.93
2023-01-20T18:06:24.158Z,85.53
2023-01-20T18:08:25.817Z,77.55
2023-01-20T18:10:27.992Z,137.13
2023-01-20T18:12:29.656Z,91.80
2023-01-20T18:14:31.370Z,87.53
2023-01-20T18:16:36.960Z,120.20
2023-01-20T18:18:43.487Z,78.53
2023-01-20T18:20:45.227Z,91.47
2023-01-20T18:22:50.478Z,60.30
2023-01-20T18:24:52.214Z,56.35
2023-01-20T18:26:55.298Z,75.00
2023-01-20T18:31:05.502Z,55.95
2023-01-20T18:33:07.252Z,50.75
2023-01-20T18:35:09.263Z,49.45
2023-01-20T18:37:10.978Z,48.58
2023-01-20T18:39:15.664Z,65.18
2023-01-20T18:41:17.891Z,64.38
2023-01-20T18:43:19.573Z,62.90
2023-01-20T18:45:21.467Z,51.28
2023-01-20T18:47:23.301Z,54.88
2023-01-20T18:49:25.248Z,55.58
2023-01-20T18:51:28.968Z,46.90
2023-01-20T18:53:31.395Z,50.53
2023-01-20T18:55:33.377Z,52.65
2023-01-20T18:57:35.082Z,46.17
2023-01-20T18:59:36.940Z,51.17
2023-01-20T19:01:40.588Z,43.78
2023-01-20T19:05:44.229Z,42.75
2023-01-20T19:07:50.038Z,51.03
2023-01-20T19:09:51.984Z,57.65
2023-01-20T19:11:53.763Z,45.55
2023-01-20T19:13:55.986Z,47.55
2023-01-20T19:15:58.292Z,54.53
2023-01-20T19:18:00.045Z,61.03
2023-01-20T19:20:02.850Z,57.95
2023-01-20T19:22:04.711Z,54.35
2023-01-20T19:24:06.886Z,51.05
2023-01-20T19:26:11.252Z,57.75
2023-01-20T19:28:12.974Z,60.83
2023-01-20T19:30:15.284Z,57.53
2023-01-20T19:32:17.251Z,53.00
2023-01-20T19:34:18.983Z,95.05
2023-01-20T19:36:20.862Z,63.83
2023-01-20T19:38:22.602Z,134.27
2023-01-20T19:40:24.299Z,93.32
2023-01-20T19:42:26.076Z,206.20
2023-01-20T19:44:27.906Z,52.88
2023-01-20T19:46:31.935Z,61.25
2023-01-20T19:48:34.186Z,87.05
2023-01-20T19:50:36.570Z,189.48
2023-01-20T19:52:38.261Z,128.50
2023-01-20T19:54:39.956Z,80.88
2023-01-20T19:56:41.934Z,89.30
2023-01-20T19:58:45.308Z,122.15
2023-01-20T20:00:47.014Z,113.95
2023-01-20T20:02:48.920Z,160.50
2023-01-20T20:04:50.726Z,276.65
2023-01-20T20:06:52.411Z,228.93
2023-01-20T20:08:57.887Z,45.55
2023-01-20T20:10:59.592Z,49.00
2023-01-20T20:13:01.305Z,76.57
2023-01-20T20:15:03.326Z,54.17
2023-01-20T20:17:05.019Z,41.45
2023-01-20T20:19:08.992Z,49.00
2023-01-20T20:21:10.943Z,49.65
2023-01-20T20:23:12.598Z,50.75
2023-01-20T20:25:14.337Z,44.63
2023-01-20T20:27:16.065Z,49.10
2023-01-20T20:29:18.888Z,34.90
2023-01-20T20:31:21.733Z,40.35
2023-01-20T20:33:24.587Z,31.50
2023-01-20T20:35:26.308Z,62.47
2023-01-20T20:37:27.994Z,42.95
2023-01-20T20:39:31.158Z,38.13
2023-01-20T20:41:33.139Z,45.13
2023-01-20T20:43:37.984Z,47.05
2023-01-20T20:45:39.842Z,46.22
2023-01-20T20:47:41.549Z,45.33
2023-01-20T20:49:43.273Z,37.20
2023-01-20T20:51:45.813Z,36.03
2023-01-20T20:53:47.487Z,36.55
2023-01-20T20:55:49.300Z,43.95
2023-01-20T20:57:51.407Z,39.22
2023-01-20T20:59:59.127Z,34.05
2023-01-20T21:02:01.537Z,39.97
2023-01-20T21:04:03.754Z,39.10
2023-01-20T21:06:05.718Z,32.00
2023-01-20T21:08:07.403Z,44.72
2023-01-20T21:10:10.021Z,36.80
2023-01-20T21:12:11.722Z,29.15
2023-01-20T21:14:13.460Z,30.08
2023-01-20T21:16:16.892Z,28.77
2023-01-20T21:18:18.597Z,40.03
2023-01-20T21:20:20.331Z,29.27
2023-01-20T21:22:22.273Z,34.95
2023-01-20T21:24:23.927Z,30.58
2023-01-20T21:26:29.725Z,31.02
2023-01-20T21:28:33.571Z,39.85
2023-01-20T21:30:35.318Z,31.85
2023-01-20T21:32:37.184Z,37.72
2023-01-20T21:34:38.930Z,43.33
2023-01-20T21:36:44.829Z,51.80
2023-01-20T21:38:46.695Z,33.92
2023-01-20T21:40:48.580Z,33.40
2023-01-20T21:42:54.429Z,30.55
2023-01-20T21:44:56.342Z,37.00
2023-01-20T21:47:07.132Z,34.00
2023-01-20T21:49:09.233Z,32.80
2023-01-20T21:51:11.067Z,34.38
2023-01-20T21:53:14.519Z,47.67
2023-01-20T21:55:18.824Z,50.28
2023-01-20T21:57:20.702Z,35.45
2023-01-20T21:59:23.003Z,40.85
2023-01-20T22:01:24.727Z,31.95
2023-01-20T22:03:27.181Z,48.15
2023-01-20T22:05:29.036Z,43.20
2023-01-20T22:07:30.754Z,41.92
2023-01-20T22:09:32.520Z,39.85
2023-01-20T22:11:34.264Z,47.20
2023-01-20T22:13:36.327Z,49.40
2023-01-20T22:15:40.350Z,46.97
2023-01-20T22:17:42.285Z,49.10
2023-01-20T22:19:44.014Z,47.10
2023-01-20T22:21:45.914Z,47.15
2023-01-20T22:23:47.744Z,44.83
2023-01-20T22:25:53.088Z,44.28
2023-01-20T22:27:54.931Z,45.08
2023-01-20T22:29:56.720Z,48.70
2023-01-20T22:31:58.532Z,43.28
2023-01-20T22:34:01.936Z,50.38
2023-01-20T22:36:06.619Z,47.08
2023-01-20T22:38:08.772Z,44.50
2023-01-20T22:40:11.232Z,50.13
2023-01-20T22:42:13.035Z,47.80
2023-01-20T22:44:14.971Z,51.63
2023-01-20T22:46:18.558Z,58.03
2023-01-20T22:50:22.140Z,43.55
2023-01-20T22:52:24.273Z,48.50
2023-01-20T22:54:26.129Z,49.85
2023-01-20T22:56:32.207Z,52.55
2023-01-20T22:58:34.502Z,67.90
2023-01-20T23:00:36.400Z,49.10
2023-01-20T23:02:38.090Z,51.00
2023-01-20T23:04:39.935Z,44.83
2023-01-20T23:06:41.825Z,52.78
2023-01-20T23:08:43.518Z,49.58
2023-01-20T23:10:45.519Z,43.60
2023-01-20T23:12:47.302Z,47.58
2023-01-20T23:14:49.042Z,51.65
2023-01-20T23:16:50.726Z,44.53
2023-01-20T23:18:52.679Z,42.72
2023-01-20T23:20:54.705Z,42.80
2023-01-20T23:22:56.488Z,39.15
2023-01-20T23:24:58.290Z,38.67
2023-01-20T23:26:59.971Z,37.90
2023-01-20T23:29:01.777Z,35.22
2023-01-20T23:31:06.485Z,35.40
2023-01-20T23:33:08.311Z,36.38
2023-01-20T23:35:10.329Z,36.78
2023-01-20T23:37:12.154Z,29.60
2023-01-20T23:39:14.592Z,32.85
2023-01-20T23:41:16.494Z,36.53
2023-01-20T23:43:18.315Z,45.35
2023-01-20T23:45:19.984Z,35.17
2023-01-20T23:47:21.731Z,36.08
2023-01-20T23:49:23.720Z,31.10
2023-01-20T23:51:25.514Z,38.70
2023-01-20T23:53:28.707Z,44.45
2023-01-20T23:55:30.586Z,28.27
2023-01-20T23:57:32.262Z,26.33
2023-01-20T23:59:34.085Z,27.98
